Time;durP1;ratioP1;P1;durP2;ratioP2;P2;SDS_P1;SDS_P2;PMS_P1;PMS_P2;Temp;Humidity;BMP_temperature;BMP_pressure;BME280_temperature;BME280_humidity;BME280_pressure;Samples;Min_cycle;Max_cycle;Signal;HPM_P1;HPM_P2
2021/05/24 00:02:14;;;;;;;5.65;3.22;;;;;;;7.69;77.90;100899.66;5051085;28;20159;-69
2021/05/24 00:04:39;;;;;;;4.47;3.15;;;;;;;7.72;78.16;100894.44;5052409;28;20040;-70
2021/05/24 00:07:06;;;;;;;5.00;3.13;;;;;;;7.75;78.43;100891.84;5048690;28;20033;-71
2021/05/24 00:09:32;;;;;;;4.03;2.67;;;;;;;7.79;77.89;100891.03;5051395;28;20045;-71
2021/05/24 00:11:58;;;;;;;5.45;3.05;;;;;;;7.81;77.65;100889.31;5051561;28;20025;-71
2021/05/24 00:14:26;;;;;;;4.07;2.83;;;;;;;7.80;77.51;100882.25;5052182;28;20068;-71
2021/05/24 00:16:51;;;;;;;4.72;2.70;;;;;;;7.74;77.79;100876.97;5056840;28;20088;-71
2021/05/24 00:19:16;;;;;;;5.75;3.40;;;;;;;7.62;78.35;100877.72;5052359;28;20123;-71
2021/05/24 00:21:42;;;;;;;5.78;2.85;;;;;;;7.59;78.30;100876.78;5051931;28;20045;-70
2021/05/24 00:24:07;;;;;;;5.22;2.92;;;;;;;7.58;77.90;100872.41;5052277;28;20032;-71
2021/05/24 00:26:33;;;;;;;3.70;2.50;;;;;;;7.57;77.56;100878.50;5058007;28;20041;-69
2021/05/24 00:28:58;;;;;;;4.88;2.85;;;;;;;7.54;77.91;100873.22;5051443;28;20033;-70
2021/05/24 00:31:24;;;;;;;6.80;3.70;;;;;;;7.46;78.28;100874.00;5051998;28;20166;-71
2021/05/24 00:33:49;;;;;;;7.10;3.30;;;;;;;7.38;78.44;100873.03;5051985;28;20104;-70
2021/05/24 00:36:14;;;;;;;5.47;3.28;;;;;;;7.36;78.50;100876.50;5051766;28;20409;-70
2021/05/24 00:38:40;;;;;;;5.43;3.15;;;;;;;7.34;78.54;100871.25;5052570;28;20037;-70
2021/05/24 00:41:05;;;;;;;6.57;2.60;;;;;;;7.33;77.96;100873.84;5055509;28;20078;-70
2021/05/24 00:43:31;;;;;;;5.85;4.10;;;;;;;7.30;78.70;100873.81;5051772;28;20546;-70
2021/05/24 00:45:56;;;;;;;5.90;4.05;;;;;;;7.25;78.44;100866.75;5053823;28;20033;-70
2021/05/24 00:48:21;;;;;;;5.68;3.33;;;;;;;7.21;78.46;100867.56;5052278;28;20083;-69
2021/05/24 00:50:47;;;;;;;5.63;3.75;;;;;;;7.19;78.88;100866.66;5051762;28;20040;-70
2021/05/24 00:53:13;;;;;;;7.15;3.53;;;;;;;7.16;78.99;100868.38;5051506;28;20098;-70
2021/05/24 00:55:38;;;;;;;5.78;2.92;;;;;;;7.14;78.93;100867.47;5051642;28;20029;-70
2021/05/24 00:58:04;;;;;;;5.00;3.40;;;;;;;7.12;78.97;100863.94;5051816;28;20495;-70
2021/05/24 01:00:40;;;;;;;4.60;2.90;;;;;;;7.02;79.17;100861.22;5051646;28;20087;-70
2021/05/24 01:03:06;;;;;;;4.40;2.80;;;;;;;6.95;79.90;100855.84;5051252;28;20107;-71
2021/05/24 01:05:32;;;;;;;5.07;3.25;;;;;;;6.90;79.71;100861.03;5051763;28;20037;-71
2021/05/24 01:07:57;;;;;;;5.65;2.95;;;;;;;6.90;79.06;100863.66;5051824;28;20041;-71
2021/05/24 01:10:23;;;;;;;5.28;3.15;;;;;;;6.90;79.38;100858.41;5051495;28;20029;-71
2021/05/24 01:12:49;;;;;;;6.45;3.80;;;;;;;6.89;78.92;100863.63;5051432;28;20029;-71
2021/05/24 01:15:14;;;;;;;6.32;3.10;;;;;;;6.86;79.79;100859.22;5051329;28;20044;-70
2021/05/24 01:17:40;;;;;;;4.97;2.75;;;;;;;6.84;79.55;100866.19;5051397;28;20036;-71
2021/05/24 01:20:06;;;;;;;4.45;2.80;;;;;;;6.80;79.74;100861.75;5051281;28;20529;-70
2021/05/24 01:22:34;;;;;;;4.97;3.03;;;;;;;6.73;79.42;100862.53;5051024;28;20766;-70
2021/05/24 01:24:59;;;;;;;4.45;2.58;;;;;;;6.67;79.79;100859.81;5051405;28;20106;-71
2021/05/24 01:27:25;;;;;;;3.85;2.70;;;;;;;6.65;80.19;100856.28;5051239;28;20033;-71
2021/05/24 01:29:50;;;;;;;6.60;3.63;;;;;;;6.58;80.27;100856.19;5051162;28;20498;-71
2021/05/24 01:32:15;;;;;;;5.93;3.63;;;;;;;6.55;80.31;100850.91;5049579;28;20074;-71
2021/05/24 01:34:42;;;;;;;5.40;2.75;;;;;;;6.56;80.31;100857.91;5051133;28;20108;-71
2021/05/24 01:37:07;;;;;;;5.25;3.05;;;;;;;6.57;80.19;100859.66;5051144;28;20075;-71
2021/05/24 01:39:33;;;;;;;7.10;2.97;;;;;;;6.57;80.05;100857.03;5050473;28;20604;-70
2021/05/24 01:41:58;;;;;;;5.40;3.13;;;;;;;6.53;80.19;100851.75;5050034;28;20847;-71
2021/05/24 01:44:33;;;;;;;5.10;2.80;;;;;;;6.47;80.39;100847.28;5050993;28;20056;-71
2021/05/24 01:46:58;;;;;;;6.05;3.10;;;;;;;6.45;80.73;100848.13;5047605;28;20041;-71
2021/05/24 01:49:24;;;;;;;5.97;3.67;;;;;;;6.43;80.05;100844.59;5050931;28;20067;-71
2021/05/24 01:51:50;;;;;;;5.72;3.75;;;;;;;6.38;80.90;100841.00;5050908;28;20411;-71
2021/05/24 01:54:15;;;;;;;4.50;2.97;;;;;;;6.34;81.07;100842.69;5050940;28;20037;-70
2021/05/24 01:56:41;;;;;;;5.00;3.17;;;;;;;6.33;81.44;100838.31;5050906;28;20043;-71
2021/05/24 01:59:07;;;;;;;6.88;2.78;;;;;;;6.34;80.98;100834.81;5050904;28;20037;-71
2021/05/24 02:01:33;;;;;;;4.57;2.80;;;;;;;6.33;80.49;100838.31;5050429;28;20033;-71
2021/05/24 02:03:59;;;;;;;7.50;2.85;;;;;;;6.28;80.23;100834.72;5050920;28;20456;-71
2021/05/24 02:06:24;;;;;;;4.22;2.80;;;;;;;6.23;80.13;100833.78;5050755;28;20442;-71
2021/05/24 02:08:49;;;;;;;5.65;2.88;;;;;;;6.20;80.23;100831.09;5050745;28;20475;-71
2021/05/24 02:11:15;;;;;;;5.68;3.10;;;;;;;6.16;80.25;100835.44;5050654;28;20041;-71
2021/05/24 02:13:44;;;;;;;4.70;3.08;;;;;;;6.11;79.67;100832.72;5050740;28;20052;-71
2021/05/24 02:16:10;;;;;;;5.95;3.35;;;;;;;6.07;80.38;100830.03;5050663;28;20494;-69
2021/05/24 02:18:35;;;;;;;5.28;3.20;;;;;;;6.06;80.75;100829.16;5050691;28;20037;-71
2021/05/24 02:21:02;;;;;;;6.07;3.05;;;;;;;6.06;80.42;100828.28;5050651;28;20041;-71
2021/05/24 02:23:28;;;;;;;6.22;2.85;;;;;;;6.05;80.64;100821.25;5050520;28;20094;-70
2021/05/24 02:25:53;;;;;;;6.25;3.47;;;;;;;6.02;80.23;100819.44;5050580;28;20503;-70
2021/05/24 02:28:18;;;;;;;5.35;3.45;;;;;;;5.98;80.65;100816.78;5050653;28;20037;-70
2021/05/24 02:30:44;;;;;;;5.20;2.78;;;;;;;5.96;80.76;100814.13;5048719;28;20128;-71
2021/05/24 02:33:09;;;;;;;6.53;2.92;;;;;;;5.93;80.05;100821.91;5050393;28;20072;-71
2021/05/24 02:35:34;;;;;;;6.13;3.00;;;;;;;5.89;80.96;100825.31;5050495;28;20175;-71
2021/05/24 02:38:00;;;;;;;4.47;2.72;;;;;;;5.87;80.37;100817.44;5050507;28;20029;-71
2021/05/24 02:40:27;;;;;;;5.72;2.90;;;;;;;5.82;79.84;100808.63;5050527;28;20479;-71
2021/05/24 02:42:53;;;;;;;6.20;3.13;;;;;;;5.79;80.56;100810.28;5050132;28;20076;-71
2021/05/24 02:45:20;;;;;;;4.65;2.88;;;;;;;5.80;80.51;100809.44;5050204;28;20059;-70
2021/05/24 02:47:46;;;;;;;6.32;3.50;;;;;;;5.80;80.56;100807.69;5050404;28;20047;-71
2021/05/24 02:50:15;;;;;;;4.32;2.65;;;;;;;5.82;80.43;100807.75;5050438;28;20056;-71
2021/05/24 02:52:40;;;;;;;5.13;2.83;;;;;;;5.80;80.32;100809.44;5047796;28;20039;-70
2021/05/24 02:55:07;;;;;;;4.65;2.78;;;;;;;5.80;80.39;100793.72;5053961;28;20139;-71
2021/05/24 02:57:32;;;;;;;4.40;2.50;;;;;;;5.77;80.15;100804.16;5054310;28;20037;-71
2021/05/24 02:59:58;;;;;;;4.05;2.30;;;;;;;5.69;79.82;100804.91;5054017;28;20044;-71
2021/05/24 03:02:28;;;;;;;3.75;2.33;;;;;;;5.60;79.68;100807.31;5053600;28;20033;-71
2021/05/24 03:04:54;;;;;;;4.20;2.67;;;;;;;5.57;80.37;100811.63;5052525;28;20063;-70
2021/05/24 03:07:20;;;;;;;4.45;2.70;;;;;;;5.54;79.89;100815.09;5053710;28;20043;-70
2021/05/24 03:09:45;;;;;;;5.13;3.05;;;;;;;5.53;79.94;100820.28;5053640;28;20037;-71
2021/05/24 03:12:11;;;;;;;4.47;2.90;;;;;;;5.50;80.59;100821.09;5053460;28;20041;-70
2021/05/24 03:14:37;;;;;;;4.72;2.55;;;;;;;5.53;80.58;100826.41;5053559;28;20098;-71
2021/05/24 03:17:03;;;;;;;4.07;2.58;;;;;;;5.57;80.47;100825.59;5053593;28;20119;-71
2021/05/24 03:19:28;;;;;;;4.40;2.47;;;;;;;5.61;80.31;100827.44;5051022;28;20044;-71
2021/05/24 03:21:54;;;;;;;4.40;2.90;;;;;;;5.66;80.08;100836.28;5053036;28;20045;-71
2021/05/24 03:24:19;;;;;;;6.63;3.20;;;;;;;5.69;80.14;100824.97;5053396;28;20040;-71
2021/05/24 03:26:44;;;;;;;6.60;3.00;;;;;;;5.71;80.02;100826.75;5052463;28;20029;-72
2021/05/24 03:29:09;;;;;;;6.97;2.65;;;;;;;5.75;80.11;100834.66;5053274;28;20472;-71
2021/05/24 03:31:35;;;;;;;4.25;2.63;;;;;;;5.74;79.87;100825.03;5053037;28;20037;-71
2021/05/24 03:34:00;;;;;;;4.60;2.70;;;;;;;5.75;79.84;100832.06;5053383;28;20083;-71
2021/05/24 03:36:25;;;;;;;5.25;2.95;;;;;;;5.78;80.00;100829.47;5053191;28;20094;-71
2021/05/24 03:38:51;;;;;;;3.92;2.40;;;;;;;5.83;79.89;100822.59;5052182;28;20036;-71
2021/05/24 03:41:17;;;;;;;4.25;2.50;;;;;;;5.89;80.20;100820.06;5053157;28;20095;-71
2021/05/24 03:43:44;;;;;;;6.28;2.53;;;;;;;5.97;79.83;100823.72;5053030;28;20032;-71
2021/05/24 03:46:10;;;;;;;4.00;2.53;;;;;;;6.06;79.92;100823.91;5047913;28;20056;-71
2021/05/24 03:51:05;;;;;;;4.43;2.42;;;;;;;6.24;79.38;100819.84;5011128;28;20099;-70
2021/05/24 03:53:30;;;;;;;4.00;2.95;;;;;;;6.28;79.33;100819.88;5026057;28;20030;-71
2021/05/24 03:55:56;;;;;;;4.63;2.83;;;;;;;6.34;79.00;100821.72;5021765;28;20044;-71
2021/05/24 03:58:22;;;;;;;4.88;2.33;;;;;;;6.40;79.34;100820.97;5026457;28;20056;-71
2021/05/24 04:00:47;;;;;;;6.55;2.83;;;;;;;6.50;79.05;100823.75;5022848;28;20037;-72
2021/05/24 04:03:13;;;;;;;4.00;2.30;;;;;;;6.61;78.67;100817.78;5022941;28;20037;-71
2021/05/24 04:05:39;;;;;;;4.00;2.10;;;;;;;6.70;78.95;100815.25;5020921;28;20099;-71
2021/05/24 04:08:06;;;;;;;3.92;1.98;;;;;;;6.82;78.70;100812.81;5022817;28;20112;-71
2021/05/24 04:10:46;;;;;;;4.72;2.85;;;;;;;6.96;78.04;100813.00;5023852;28;20045;-71
2021/05/24 04:13:11;;;;;;;4.38;2.30;;;;;;;7.07;78.28;100808.75;5029547;28;20037;-71
2021/05/24 04:15:37;;;;;;;5.28;2.78;;;;;;;7.20;77.97;100799.28;5023361;28;20048;-71
2021/05/24 04:18:06;;;;;;;4.03;2.17;;;;;;;7.34;77.76;100799.47;5023232;28;20038;-71
2021/05/24 04:20:32;;;;;;;4.20;2.28;;;;;;;7.46;77.74;100803.09;5020833;28;20055;-71
2021/05/24 04:22:57;;;;;;;5.72;2.60;;;;;;;7.59;77.32;100800.59;5026949;28;20030;-71
2021/05/24 04:25:23;;;;;;;6.05;1.98;;;;;;;7.68;76.71;100804.22;5028372;28;20045;-70
2021/05/24 04:27:48;;;;;;;4.32;2.10;;;;;;;7.82;76.26;100803.47;5024623;28;20121;-72
2021/05/24 04:30:15;;;;;;;4.75;1.90;;;;;;;7.93;76.26;100800.94;5020888;28;20033;-71
2021/05/24 04:32:40;;;;;;;4.43;1.85;;;;;;;8.03;76.32;100801.03;5022068;28;20037;-71
2021/05/24 04:35:07;;;;;;;3.83;2.08;;;;;;;8.13;75.64;100800.22;5023342;28;20052;-71
2021/05/24 04:37:32;;;;;;;4.57;1.83;;;;;;;8.23;75.80;100801.19;5020979;28;20037;-71
2021/05/24 04:39:58;;;;;;;4.18;2.30;;;;;;;8.33;75.81;100810.00;5022063;28;20420;-71
2021/05/24 04:42:23;;;;;;;3.97;2.10;;;;;;;8.45;75.39;100809.28;5022976;28;20072;-71
2021/05/24 04:44:49;;;;;;;5.60;2.00;;;;;;;8.57;75.40;100809.38;5020565;28;20033;-71
2021/05/24 04:47:14;;;;;;;4.50;2.10;;;;;;;8.68;75.58;100809.44;5021945;28;20080;-72
2021/05/24 04:49:40;;;;;;;6.90;2.40;;;;;;;8.80;75.04;100817.38;5022748;28;20116;-71
2021/05/24 04:52:05;;;;;;;4.90;2.10;;;;;;;8.92;75.09;100822.72;5020197;28;20481;-71
2021/05/24 04:54:30;;;;;;;3.33;1.80;;;;;;;9.05;75.17;100818.41;5022121;28;20573;-72
2021/05/24 04:56:56;;;;;;;4.88;1.70;;;;;;;9.18;74.80;100806.16;5022597;28;20119;-72
2021/05/24 04:59:21;;;;;;;3.40;1.52;;;;;;;9.31;74.95;100815.88;5020238;28;20480;-72
2021/05/24 05:01:49;;;;;;;3.90;1.70;;;;;;;9.45;75.02;100823.81;5021763;28;20063;-72
2021/05/24 05:04:16;;;;;;;2.63;1.50;;;;;;;9.58;74.21;100830.88;5022785;28;20041;-72
2021/05/24 05:06:42;;;;;;;3.30;1.60;;;;;;;9.71;74.00;100831.78;5023239;28;20558;-72
2021/05/24 05:09:08;;;;;;;3.92;1.45;;;;;;;9.82;73.54;100834.44;5021561;28;20053;-71
2021/05/24 05:11:33;;;;;;;3.10;1.65;;;;;;;9.93;73.48;100819.53;5020152;28;20432;-72
2021/05/24 05:13:59;;;;;;;2.63;1.50;;;;;;;10.04;73.34;100815.13;5020268;28;20058;-71
2021/05/24 05:16:24;;;;;;;2.10;1.30;;;;;;;10.14;72.52;100817.75;5021198;28;20143;-72
2021/05/24 05:18:50;;;;;;;4.30;1.52;;;;;;;10.27;72.63;100806.31;5022518;28;20033;-71
2021/05/24 05:21:15;;;;;;;2.70;1.42;;;;;;;10.40;72.70;100802.88;5019846;28;20674;-71
2021/05/24 05:23:40;;;;;;;2.97;1.35;;;;;;;10.53;72.31;100806.34;5021594;28;20029;-71
2021/05/24 05:26:06;;;;;;;3.40;1.30;;;;;;;10.65;72.29;100813.38;5022498;28;20459;-72
2021/05/24 05:28:31;;;;;;;3.13;1.48;;;;;;;10.78;71.98;100812.47;5020115;28;20646;-71
2021/05/24 05:30:56;;;;;;;4.28;1.40;;;;;;;10.93;71.33;100819.47;5021596;28;20427;-71
2021/05/24 05:33:22;;;;;;;2.35;1.30;;;;;;;11.06;71.22;100810.63;5021924;28;20083;-72
2021/05/24 05:35:48;;;;;;;4.18;1.75;;;;;;;11.20;70.96;100813.19;5019985;28;20123;-72
2021/05/24 05:38:15;;;;;;;2.75;1.20;;;;;;;11.37;70.80;100798.16;5021588;28;20036;-72
2021/05/24 05:40:42;;;;;;;3.55;1.13;;;;;;;11.53;70.04;100795.44;5022315;28;20060;-75
2021/05/24 05:43:08;;;;;;;3.08;1.25;;;;;;;11.71;69.67;100795.31;5022165;28;20043;-76
2021/05/24 05:45:33;;;;;;;3.00;1.02;;;;;;;11.89;69.50;100798.72;5025683;28;20111;-77
2021/05/24 05:48:00;;;;;;;2.30;1.00;;;;;;;12.04;68.49;100795.97;5029842;28;20087;-76
2021/05/24 05:50:26;;;;;;;2.20;1.00;;;;;;;12.19;67.69;100797.63;5022245;28;20037;-77
2021/05/24 05:52:52;;;;;;;3.70;1.17;;;;;;;12.33;67.26;100800.16;5042992;28;20034;-76
2021/05/24 05:55:17;;;;;;;2.47;0.90;;;;;;;12.43;66.69;100801.81;5023507;28;20067;-76
2021/05/24 05:57:42;;;;;;;2.10;0.80;;;;;;;12.54;66.37;100804.38;5019845;28;20112;-76
2021/05/24 06:00:08;;;;;;;2.58;0.77;;;;;;;12.62;66.30;100819.28;5020910;28;20056;-76
2021/05/24 06:02:40;;;;;;;1.90;0.80;;;;;;;12.71;66.08;100799.78;5022046;28;20471;-76
2021/05/24 06:05:05;;;;;;;2.33;0.90;;;;;;;12.76;65.04;100805.91;5020446;28;20062;-75
2021/05/24 06:07:31;;;;;;;2.53;1.10;;;;;;;12.84;65.18;100809.34;5028034;28;20033;-75
2021/05/24 06:09:56;;;;;;;2.85;1.10;;;;;;;12.93;65.30;100805.72;5025768;28;20033;-75
2021/05/24 06:12:21;;;;;;;5.30;1.25;;;;;;;13.05;65.50;100802.94;5019985;28;20060;-75
2021/05/24 06:14:47;;;;;;;6.70;1.50;;;;;;;13.18;65.30;100808.06;5020728;28;20042;-76
2021/05/24 06:17:12;;;;;;;3.05;0.82;;;;;;;13.31;64.54;100812.38;5022265;28;20030;-75
2021/05/24 06:19:37;;;;;;;2.47;0.77;;;;;;;13.37;63.50;100809.63;5019942;28;20088;-75
2021/05/24 06:22:03;;;;;;;3.60;1.20;;;;;;;13.45;62.68;100802.44;5018818;28;20509;-75
2021/05/24 06:24:28;;;;;;;4.18;1.23;;;;;;;13.57;63.15;100802.28;5022087;28;20458;-75
2021/05/24 06:26:53;;;;;;;2.85;1.13;;;;;;;13.71;62.65;100802.06;5020062;28;20073;-75
2021/05/24 06:29:25;;;;;;;2.72;0.82;;;;;;;13.81;61.73;100806.34;5022938;28;20038;-75
2021/05/24 06:31:55;;;;;;;3.78;0.68;;;;;;;13.89;61.25;100798.28;5032742;28;20052;-75
2021/05/24 06:34:20;;;;;;;2.00;0.82;;;;;;;14.02;60.81;100802.47;5024359;28;20067;-76
2021/05/24 06:36:46;;;;;;;5.50;1.20;;;;;;;14.10;60.97;100806.81;5032273;28;20472;-76
2021/05/24 06:39:12;;;;;;;3.65;0.80;;;;;;;14.18;60.58;100802.22;5024018;28;20125;-76
2021/05/24 06:41:38;;;;;;;3.10;0.70;;;;;;;14.26;60.16;100813.59;5024522;28;20042;-76
2021/05/24 06:44:05;;;;;;;2.63;1.20;;;;;;;14.42;59.51;100807.13;5023477;28;20056;-75
2021/05/24 06:46:30;;;;;;;3.00;0.85;;;;;;;14.64;59.02;100809.41;5026054;28;20048;-77
2021/05/24 06:48:56;;;;;;;3.38;1.10;;;;;;;14.78;58.37;100804.72;5031031;28;20034;-77
2021/05/24 06:51:21;;;;;;;3.55;1.05;;;;;;;14.92;57.66;100787.63;5027473;28;20037;-78
2021/05/24 06:53:46;;;;;;;3.72;0.90;;;;;;;15.04;57.59;100788.28;5045832;28;20056;-77
2021/05/24 06:56:12;;;;;;;2.85;1.15;;;;;;;15.10;57.37;100789.91;5027362;28;20040;-77
2021/05/24 06:58:38;;;;;;;1.92;0.88;;;;;;;15.16;57.30;100787.13;5024007;28;20490;-77
2021/05/24 07:01:03;;;;;;;2.30;0.77;;;;;;;15.21;56.98;100781.72;5027113;28;20033;-79
2021/05/24 07:03:29;;;;;;;1.67;0.70;;;;;;;15.21;56.64;100769.28;5025904;28;20612;-77
2021/05/24 07:05:56;;;;;;;3.47;0.95;;;;;;;15.17;56.90;100772.03;5024411;28;20397;-77
2021/05/24 07:08:22;;;;;;;2.08;0.85;;;;;;;15.11;57.27;100765.94;5024655;28;20436;-77
2021/05/24 07:10:47;;;;;;;1.75;0.82;;;;;;;15.16;57.39;100779.16;5024318;28;20128;-76
2021/05/24 07:13:12;;;;;;;2.35;0.80;;;;;;;15.24;57.28;100781.66;5020841;28;20113;-77
2021/05/24 07:15:38;;;;;;;3.30;0.90;;;;;;;15.38;56.94;100782.25;5024788;28;20392;-77
2021/05/24 07:18:04;;;;;;;3.60;0.90;;;;;;;15.42;57.15;100772.41;5023815;28;20045;-77
2021/05/24 07:20:30;;;;;;;3.20;1.10;;;;;;;15.51;56.91;100761.53;5022418;28;20071;-77
2021/05/24 07:22:56;;;;;;;3.08;1.20;;;;;;;15.75;55.87;100766.34;5024698;28;20033;-76
2021/05/24 07:25:21;;;;;;;3.30;1.17;;;;;;;15.99;55.12;100761.34;5024415;28;20045;-77
2021/05/24 07:27:47;;;;;;;2.50;1.20;;;;;;;16.15;54.52;100751.16;5048533;28;20128;-77
2021/05/24 07:30:13;;;;;;;3.72;1.00;;;;;;;16.24;54.31;100753.56;5025117;28;20037;-77
2021/05/24 07:32:38;;;;;;;2.78;1.00;;;;;;;16.38;54.17;100747.91;5023884;28;20982;-77
2021/05/24 07:35:04;;;;;;;2.70;0.90;;;;;;;16.39;53.43;100746.97;5022050;28;20116;-78
2021/05/24 07:37:30;;;;;;;2.33;0.82;;;;;;;16.49;53.35;100737.84;5026692;28;20033;-78
2021/05/24 07:39:55;;;;;;;2.78;0.90;;;;;;;16.47;52.91;100737.00;5025927;28;20089;-78
2021/05/24 07:42:21;;;;;;;3.33;0.93;;;;;;;16.57;53.20;100738.50;5024557;28;20038;-77
2021/05/24 07:44:46;;;;;;;2.47;0.93;;;;;;;16.42;52.20;100723.78;5027475;28;20041;-78
2021/05/24 07:47:11;;;;;;;2.35;0.70;;;;;;;16.57;52.02;100725.16;5025458;28;20493;-76
2021/05/24 07:49:37;;;;;;;3.00;1.10;;;;;;;16.64;51.89;100724.09;5023981;28;20408;-77
2021/05/24 07:52:03;;;;;;;3.70;1.20;;;;;;;16.79;52.07;100721.91;5024151;28;20423;-75
2021/05/24 07:54:28;;;;;;;3.78;0.90;;;;;;;16.91;51.29;100734.91;5023211;28;20042;-77
2021/05/24 07:56:54;;;;;;;2.05;0.95;;;;;;;16.88;50.40;100721.66;5022559;28;20044;-77
2021/05/24 07:59:19;;;;;;;2.60;1.00;;;;;;;17.07;50.55;100708.66;5024183;28;20506;-78
2021/05/24 08:01:45;;;;;;;1.90;0.90;;;;;;;17.07;49.93;100708.66;5024249;28;20087;-77
2021/05/24 08:04:10;;;;;;;3.15;0.90;;;;;;;17.35;50.36;100714.03;5024430;28;20045;-78
2021/05/24 08:06:36;;;;;;;2.45;1.05;;;;;;;17.56;49.34;100701.81;5022963;28;20528;-77
2021/05/24 08:09:03;;;;;;;2.58;1.00;;;;;;;17.62;49.17;100706.94;5028415;28;20053;-77
2021/05/24 08:11:28;;;;;;;2.80;1.00;;;;;;;17.71;48.05;100700.41;5031115;28;20483;-78
2021/05/24 08:13:54;;;;;;;2.42;0.95;;;;;;;17.93;48.25;100700.63;5023120;28;20084;-78
2021/05/24 08:16:21;;;;;;;4.03;1.17;;;;;;;18.03;47.37;100695.84;5045589;28;20039;-77
2021/05/24 08:18:46;;;;;;;2.58;1.30;;;;;;;18.36;47.95;100691.97;5020272;28;20045;-76
2021/05/24 08:21:12;;;;;;;2.97;1.20;;;;;;;18.56;47.35;100685.91;5041201;28;20034;-78
2021/05/24 08:23:37;;;;;;;2.88;1.20;;;;;;;18.71;47.51;100688.97;5023046;28;20053;-78
2021/05/24 08:26:04;;;;;;;2.45;1.10;;;;;;;18.57;45.59;100686.78;5046019;28;20037;-79
2021/05/24 08:28:29;;;;;;;4.45;0.98;;;;;;;18.80;46.12;100683.28;5025969;28;20045;-79
2021/05/24 08:30:55;;;;;;;2.05;0.95;;;;;;;18.89;44.46;100682.94;5012921;28;20034;-79
2021/05/24 08:33:22;;;;;;;2.63;1.10;;;;;;;18.95;45.67;100681.84;5021488;28;20034;-79
2021/05/24 08:35:50;;;;;;;3.03;1.20;;;;;;;19.01;44.29;100673.56;5023156;28;20042;-79
2021/05/24 08:38:16;;;;;;;3.58;1.83;;;;;;;19.11;44.68;100674.97;5022603;28;20113;-79
2021/05/24 08:40:43;;;;;;;3.50;1.15;;;;;;;18.99;44.75;100667.41;5020808;28;20045;-79
2021/05/24 08:43:08;;;;;;;3.92;0.95;;;;;;;19.22;44.53;100674.53;5023567;28;20458;-79
2021/05/24 08:45:38;;;;;;;4.07;1.13;;;;;;;19.36;44.03;100677.53;5046622;28;20120;-79
2021/05/24 08:48:08;;;;;;;2.30;1.05;;;;;;;19.47;43.30;100667.25;5024363;28;20045;-79
2021/05/24 08:50:35;;;;;;;6.88;1.77;;;;;;;19.19;43.07;100662.16;5022989;28;20048;-79
2021/05/24 08:53:01;;;;;;;2.83;1.10;;;;;;;19.46;43.40;100676.22;5021474;28;20061;-79
2021/05/24 08:55:26;;;;;;;2.45;1.00;;;;;;;19.58;43.11;100668.63;5022606;28;20037;-79
2021/05/24 08:57:52;;;;;;;4.90;1.30;;;;;;;19.69;43.24;100653.88;5013341;28;20033;-79
2021/05/24 09:00:20;;;;;;;2.88;1.13;;;;;;;19.83;43.15;100649.75;5014845;28;20083;-79
2021/05/24 09:02:47;;;;;;;2.05;0.85;;;;;;;19.88;43.06;100645.94;5043860;28;20088;-79
2021/05/24 09:05:13;;;;;;;2.63;1.00;;;;;;;20.13;42.99;100634.16;5031536;28;20059;-79
2021/05/24 09:07:57;;;;;;;2.60;1.20;;;;;;;20.19;42.58;100638.38;5020390;28;20041;-79
2021/05/24 09:10:25;;;;;;;2.67;1.10;;;;;;;20.36;42.75;100641.19;5021512;28;20060;-79
2021/05/24 09:12:51;;;;;;;3.22;1.15;;;;;;;20.53;42.05;100627.88;5021080;28;20067;-79
2021/05/24 09:15:17;;;;;;;2.28;0.90;;;;;;;20.53;41.79;100630.53;5024334;28;20034;-79
2021/05/24 09:17:54;;;;;;;2.45;0.90;;;;;;;20.47;42.00;100632.66;5021728;28;20455;-79
2021/05/24 09:20:19;;;;;;;2.72;1.15;;;;;;;20.70;41.69;100628.94;5021153;28;20037;-79
2021/05/24 09:22:45;;;;;;;3.47;1.02;;;;;;;20.83;41.36;100631.91;5023221;28;20048;-80
2021/05/24 09:25:11;;;;;;;2.13;0.88;;;;;;;20.75;40.95;100626.91;5029176;28;20037;-80
2021/05/24 09:27:40;;;;;;;2.47;1.02;;;;;;;20.71;41.04;100626.19;5024623;28;20043;-79
2021/05/24 09:30:07;;;;;;;1.83;0.75;;;;;;;20.68;40.69;100615.59;5027440;28;20041;-79
2021/05/24 09:32:33;;;;;;;2.28;0.98;;;;;;;20.48;40.75;100621.84;5024872;28;20056;-80
2021/05/24 09:35:02;;;;;;;2.45;0.75;;;;;;;20.47;41.77;100613.88;5036834;28;20045;-79
2021/05/24 09:37:35;;;;;;;1.25;0.60;;;;;;;20.38;40.21;100612.47;5022268;28;20088;-79
2021/05/24 09:40:16;;;;;;;1.88;0.80;;;;;;;20.14;40.45;100609.97;5023633;28;20033;-80
2021/05/24 09:42:42;;;;;;;4.13;0.95;;;;;;;19.88;40.97;100610.25;5030627;28;20117;-80
2021/05/24 09:45:15;;;;;;;1.30;0.60;;;;;;;19.89;39.67;100612.88;5021522;28;20057;-79
2021/05/24 09:47:41;;;;;;;2.47;0.68;;;;;;;19.52;39.65;100609.97;5023607;28;20037;-79
2021/05/24 09:50:21;;;;;;;3.15;1.00;;;;;;;19.31;39.89;100607.28;5041335;28;20064;-79
2021/05/24 09:52:47;;;;;;;3.20;0.88;;;;;;;19.41;40.47;100597.03;5024936;28;20098;-79
2021/05/24 09:55:24;;;;;;;1.98;0.65;;;;;;;19.68;41.06;100597.72;5020596;28;20068;-79
2021/05/24 09:58:00;;;;;;;2.65;0.52;;;;;;;19.71;39.86;100592.25;5023831;28;20065;-80
2021/05/24 10:00:30;;;;;;;3.80;0.77;;;;;;;19.75;41.48;100590.28;5035815;28;20057;-79
2021/05/24 10:02:58;;;;;;;1.80;0.70;;;;;;;19.88;41.01;100578.97;5025990;28;20075;-79
2021/05/24 10:05:46;;;;;;;1.30;0.57;;;;;;;19.73;39.94;100573.41;5050676;28;20111;-79
2021/05/24 10:08:12;;;;;;;1.25;0.50;;;;;;;19.93;39.62;100563.56;5023641;28;20041;-79
2021/05/24 10:10:41;;;;;;;2.67;0.95;;;;;;;20.08;39.13;100559.34;5026243;28;20399;-79
2021/05/24 10:13:07;;;;;;;2.50;0.80;;;;;;;20.44;38.39;100560.44;5016684;28;20029;-79
2021/05/24 10:15:35;;;;;;;1.90;0.85;;;;;;;20.49;38.97;100553.03;5026984;28;20064;-79
2021/05/24 10:18:02;;;;;;;2.80;1.10;;;;;;;20.44;38.74;100553.25;5032724;28;20033;-79
2021/05/24 10:20:29;;;;;;;4.65;0.98;;;;;;;20.28;38.71;100561.13;5027462;28;20041;-79
2021/05/24 10:22:55;;;;;;;2.83;0.73;;;;;;;20.33;38.43;100529.63;5025243;28;20440;-79
2021/05/24 10:25:21;;;;;;;1.55;0.60;;;;;;;20.14;39.51;100537.63;5023615;28;20092;-79
2021/05/24 10:27:47;;;;;;;1.38;0.60;;;;;;;20.28;39.36;100533.47;5027219;28;20033;-79
2021/05/24 10:30:13;;;;;;;0.90;0.50;;;;;;;20.34;38.99;100530.47;5025602;28;20041;-79
2021/05/24 10:33:01;;;;;;;1.48;0.55;;;;;;;20.47;38.91;100534.31;5023178;28;20447;-79
2021/05/24 10:35:37;;;;;;;2.17;0.60;;;;;;;20.28;38.87;100533.47;5026935;28;20037;-79
2021/05/24 10:38:26;;;;;;;1.50;0.50;;;;;;;20.45;37.84;100525.47;5025406;28;20045;-79
2021/05/24 10:40:51;;;;;;;2.13;0.50;;;;;;;20.48;38.22;100528.00;5026954;28;20045;-79
2021/05/24 10:43:18;;;;;;;3.80;0.77;;;;;;;20.43;37.71;100523.81;5026347;28;20033;-79
2021/05/24 10:45:48;;;;;;;1.83;0.70;;;;;;;20.75;38.17;100514.25;5025519;28;20397;-79
2021/05/24 10:48:19;;;;;;;2.10;0.80;;;;;;;20.66;36.94;100490.59;5024096;28;20034;-79
2021/05/24 10:51:08;;;;;;;1.60;0.60;;;;;;;20.72;37.66;100480.44;5025347;28;20077;-79
2021/05/24 10:53:41;;;;;;;2.35;0.80;;;;;;;20.93;37.21;100472.25;5025568;28;20392;-79
2021/05/24 10:56:16;;;;;;;1.85;0.70;;;;;;;20.91;38.28;100474.16;5026684;28;20044;-79
2021/05/24 10:58:41;;;;;;;2.78;0.52;;;;;;;21.20;37.17;100464.63;5026405;28;20041;-79
2021/05/24 11:01:07;;;;;;;3.15;0.85;;;;;;;21.40;36.42;100451.06;5024531;28;20185;-79
2021/05/24 11:03:32;;;;;;;1.45;0.60;;;;;;;21.45;35.52;100442.78;5024413;28;20038;-79
2021/05/24 11:06:13;;;;;;;1.95;0.75;;;;;;;21.39;34.76;100441.28;5026323;28;20051;-79
2021/05/24 11:08:41;;;;;;;1.85;0.60;;;;;;;21.28;35.28;100434.72;5025979;28;20504;-79
2021/05/24 11:11:24;;;;;;;2.13;0.75;;;;;;;21.40;35.32;100426.88;5026307;28;20034;-79
2021/05/24 11:14:01;;;;;;;2.72;0.60;;;;;;;21.51;36.01;100420.97;5023155;28;20034;-79
2021/05/24 11:16:28;;;;;;;3.72;0.70;;;;;;;21.56;34.95;100424.28;5022381;28;20045;-79
2021/05/24 11:19:14;;;;;;;0.90;0.47;;;;;;;21.45;33.41;100424.84;5025308;28;20488;-79
2021/05/24 11:21:41;;;;;;;1.63;0.50;;;;;;;21.79;34.04;100414.97;5025861;28;20051;-79
2021/05/24 11:27:10;;;;;;;1.90;0.65;;;;;;;22.10;34.21;100407.91;5026520;28;20068;-79
2021/05/24 11:29:36;;;;;;;1.50;0.52;;;;;;;22.37;34.02;100416.25;5023519;28;20504;-79
2021/05/24 11:32:16;;;;;;;2.85;0.80;;;;;;;22.56;33.11;100408.03;5025588;28;20088;-79
2021/05/24 11:34:41;;;;;;;1.98;0.65;;;;;;;22.58;30.62;100400.69;5032198;28;20029;-79